sensor_id;sensor_type;location;lat;lon;timestamp;P1;durP1;ratioP1;P2;durP2;ratioP2
3696;SDS011;60662;48.810;8.872;2023-07-02T07:34:30;50.90;;;20.45;;
3696;SDS011;60662;48.810;8.872;2023-07-02T07:37:57;67.28;;;41.15;;
3696;SDS011;60662;48.810;8.872;2023-07-02T07:40:02;90.32;;;43.90;;
3696;SDS011;60662;48.810;8.872;2023-07-02T07:42:09;46.05;;;26.38;;
3696;SDS011;60662;48.810;8.872;2023-07-02T07:44:33;58.67;;;25.77;;
3696;SDS011;60662;48.810;8.872;2023-07-02T07:45:35;70.22;;;39.20;;
3696;SDS011;60662;48.810;8.872;2023-07-02T07:46:36;248.95;;;123.65;;
3696;SDS011;60662;48.810;8.872;2023-07-02T07:47:38;78.47;;;52.92;;
3696;SDS011;60662;48.810;8.872;2023-07-02T07:48:40;44.75;;;27.25;;
3696;SDS011;60662;48.810;8.872;2023-07-02T07:49:42;64.95;;;43.58;;
3696;SDS011;60662;48.810;8.872;2023-07-02T07:51:49;169.88;;;96.57;;
3696;SDS011;60662;48.810;8.872;2023-07-02T07:52:50;57.08;;;35.40;;
3696;SDS011;60662;48.810;8.872;2023-07-02T07:53:52;76.90;;;49.25;;
3696;SDS011;60662;48.810;8.872;2023-07-02T07:54:53;61.88;;;36.65;;
3696;SDS011;60662;48.810;8.872;2023-07-02T07:57:09;88.65;;;66.68;;
3696;SDS011;60662;48.810;8.872;2023-07-02T07:58:10;160.65;;;64.45;;
3696;SDS011;60662;48.810;8.872;2023-07-02T07:59:12;115.75;;;44.80;;
3696;SDS011;60662;48.810;8.872;2023-07-02T08:00:15;132.45;;;57.50;;
3696;SDS011;60662;48.810;8.872;2023-07-02T08:01:18;469.30;;;191.18;;
3696;SDS011;60662;48.810;8.872;2023-07-02T08:02:19;500.00;;;259.00;;
3696;SDS011;60662;48.810;8.872;2023-07-02T08:03:24;80.85;;;45.97;;
3696;SDS011;60662;48.810;8.872;2023-07-02T08:04:25;1434.35;;;652.92;;
3696;SDS011;60662;48.810;8.872;2023-07-02T08:05:27;76.45;;;39.88;;
3696;SDS011;60662;48.810;8.872;2023-07-02T08:06:29;83.25;;;53.53;;
3696;SDS011;60662;48.810;8.872;2023-07-02T08:07:31;128.30;;;92.32;;
3696;SDS011;60662;48.810;8.872;2023-07-02T08:08:33;48.22;;;26.70;;
3696;SDS011;60662;48.810;8.872;2023-07-02T08:09:34;185.63;;;129.63;;
3696;SDS011;60662;48.810;8.872;2023-07-02T08:10:36;126.57;;;101.90;;
3696;SDS011;60662;48.810;8.872;2023-07-02T08:11:37;126.30;;;80.30;;
3696;SDS011;60662;48.810;8.872;2023-07-02T08:12:39;198.48;;;134.68;;
3696;SDS011;60662;48.810;8.872;2023-07-02T08:13:40;389.02;;;346.40;;
3696;SDS011;60662;48.810;8.872;2023-07-02T08:14:42;452.30;;;400.88;;
3696;SDS011;60662;48.810;8.872;2023-07-02T08:15:43;823.72;;;723.40;;
3696;SDS011;60662;48.810;8.872;2023-07-02T08:16:45;467.42;;;427.15;;
3696;SDS011;60662;48.810;8.872;2023-07-02T08:17:47;2097.13;;;999.90;;
3696;SDS011;60662;48.810;8.872;2023-07-02T08:18:48;1051.10;;;902.22;;
3696;SDS011;60662;48.810;8.872;2023-07-02T08:19:50;2248.27;;;999.90;;
3696;SDS011;60662;48.810;8.872;2023-07-02T08:20:51;2250.00;;;999.90;;
3696;SDS011;60662;48.810;8.872;2023-07-02T08:21:53;2250.00;;;999.90;;
3696;SDS011;60662;48.810;8.872;2023-07-02T08:22:54;2221.70;;;999.90;;
3696;SDS011;60662;48.810;8.872;2023-07-02T08:23:56;1090.40;;;814.13;;
3696;SDS011;60662;48.810;8.872;2023-07-02T08:24:58;1206.18;;;765.05;;
3696;SDS011;60662;48.810;8.872;2023-07-02T08:26:00;1469.93;;;866.97;;
3696;SDS011;60662;48.810;8.872;2023-07-02T08:27:02;809.42;;;639.20;;
3696;SDS011;60662;48.810;8.872;2023-07-02T08:28:06;1348.85;;;747.63;;
3696;SDS011;60662;48.810;8.872;2023-07-02T08:29:07;1350.47;;;835.63;;
3696;SDS011;60662;48.810;8.872;2023-07-02T08:31:14;987.33;;;880.03;;
3696;SDS011;60662;48.810;8.872;2023-07-02T08:32:15;989.10;;;883.63;;
3696;SDS011;60662;48.810;8.872;2023-07-02T08:33:17;1277.25;;;994.22;;
3696;SDS011;60662;48.810;8.872;2023-07-02T08:34:18;1359.55;;;957.47;;
3696;SDS011;60662;48.810;8.872;2023-07-02T08:35:20;1080.75;;;964.75;;
3696;SDS011;60662;48.810;8.872;2023-07-02T08:36:21;1614.18;;;999.90;;
3696;SDS011;60662;48.810;8.872;2023-07-02T08:37:23;1256.30;;;871.63;;
3696;SDS011;60662;48.810;8.872;2023-07-02T08:38:24;913.90;;;815.13;;
3696;SDS011;60662;48.810;8.872;2023-07-02T08:39:26;939.45;;;848.22;;
3696;SDS011;60662;48.810;8.872;2023-07-02T08:40:27;993.92;;;801.03;;
3696;SDS011;60662;48.810;8.872;2023-07-02T08:41:29;1150.97;;;938.15;;
3696;SDS011;60662;48.810;8.872;2023-07-02T08:42:33;942.25;;;810.50;;
3696;SDS011;60662;48.810;8.872;2023-07-02T08:43:35;815.40;;;713.15;;
3696;SDS011;60662;48.810;8.872;2023-07-02T08:44:37;1535.78;;;852.50;;
3696;SDS011;60662;48.810;8.872;2023-07-02T08:45:40;855.65;;;705.25;;
3696;SDS011;60662;48.810;8.872;2023-07-02T08:46:43;755.85;;;449.85;;
3696;SDS011;60662;48.810;8.872;2023-07-02T08:47:45;768.13;;;601.58;;
3696;SDS011;60662;48.810;8.872;2023-07-02T08:48:47;911.22;;;727.72;;
3696;SDS011;60662;48.810;8.872;2023-07-02T08:49:49;1051.55;;;852.20;;
3696;SDS011;60662;48.810;8.872;2023-07-02T08:50:51;1125.00;;;713.47;;
3696;SDS011;60662;48.810;8.872;2023-07-02T08:51:54;1120.88;;;936.60;;
3696;SDS011;60662;48.810;8.872;2023-07-02T08:52:55;648.13;;;474.85;;
3696;SDS011;60662;48.810;8.872;2023-07-02T08:53:57;2250.00;;;999.90;;
3696;SDS011;60662;48.810;8.872;2023-07-02T08:54:58;2250.00;;;999.90;;
3696;SDS011;60662;48.810;8.872;2023-07-02T08:56:00;624.25;;;368.17;;
3696;SDS011;60662;48.810;8.872;2023-07-02T08:57:03;1508.50;;;796.38;;
3696;SDS011;60662;48.810;8.872;2023-07-02T08:58:06;2250.00;;;999.90;;
3696;SDS011;60662;48.810;8.872;2023-07-02T08:59:08;2250.00;;;999.90;;
3696;SDS011;60662;48.810;8.872;2023-07-02T09:00:10;2250.00;;;999.90;;
3696;SDS011;60662;48.810;8.872;2023-07-02T09:01:13;2250.00;;;999.90;;
3696;SDS011;60662;48.810;8.872;2023-07-02T09:02:15;2250.00;;;999.90;;
3696;SDS011;60662;48.810;8.872;2023-07-02T09:03:17;2250.00;;;999.90;;
3696;SDS011;60662;48.810;8.872;2023-07-02T09:05:27;2250.00;;;999.90;;
3696;SDS011;60662;48.810;8.872;2023-07-02T09:06:28;2250.00;;;999.90;;
3696;SDS011;60662;48.810;8.872;2023-07-02T09:07:30;2250.00;;;999.90;;
3696;SDS011;60662;48.810;8.872;2023-07-02T09:08:31;2250.00;;;999.90;;
3696;SDS011;60662;48.810;8.872;2023-07-02T09:09:46;2250.00;;;999.90;;
3696;SDS011;60662;48.810;8.872;2023-07-02T09:10:51;2250.00;;;999.90;;
3696;SDS011;60662;48.810;8.872;2023-07-02T09:11:53;2250.00;;;999.90;;
3696;SDS011;60662;48.810;8.872;2023-07-02T09:13:04;2250.00;;;999.90;;
3696;SDS011;60662;48.810;8.872;2023-07-02T09:14:06;2250.00;;;999.90;;
3696;SDS011;60662;48.810;8.872;2023-07-02T09:15:07;2250.00;;;999.90;;
3696;SDS011;60662;48.810;8.872;2023-07-02T09:16:20;2250.00;;;999.90;;
3696;SDS011;60662;48.810;8.872;2023-07-02T09:17:33;2250.00;;;999.90;;
3696;SDS011;60662;48.810;8.872;2023-07-02T09:18:37;2250.00;;;999.90;;
3696;SDS011;60662;48.810;8.872;2023-07-02T09:19:49;2250.00;;;999.90;;
3696;SDS011;60662;48.810;8.872;2023-07-02T09:20:53;2250.00;;;999.90;;
3696;SDS011;60662;48.810;8.872;2023-07-02T09:21:56;2250.00;;;999.90;;
3696;SDS011;60662;48.810;8.872;2023-07-02T09:23:00;2250.00;;;999.90;;
3696;SDS011;60662;48.810;8.872;2023-07-02T09:24:11;2250.00;;;999.90;;
3696;SDS011;60662;48.810;8.872;2023-07-02T09:25:33;2250.00;;;999.90;;
3696;SDS011;60662;48.810;8.872;2023-07-02T09:26:35;2250.00;;;999.90;;
3696;SDS011;60662;48.810;8.872;2023-07-02T09:27:38;2250.00;;;999.90;;
3696;SDS011;60662;48.810;8.872;2023-07-02T09:28:40;2250.00;;;999.90;;
3696;SDS011;60662;48.810;8.872;2023-07-02T09:29:42;2250.00;;;999.90;;
3696;SDS011;60662;48.810;8.872;2023-07-02T09:30:53;2250.00;;;999.90;;
3696;SDS011;60662;48.810;8.872;2023-07-02T09:32:02;2250.00;;;999.90;;
3696;SDS011;60662;48.810;8.872;2023-07-02T09:33:11;2250.00;;;999.90;;
3696;SDS011;60662;48.810;8.872;2023-07-02T09:34:13;2250.00;;;999.90;;
3696;SDS011;60662;48.810;8.872;2023-07-02T09:35:15;2250.00;;;999.90;;
3696;SDS011;60662;48.810;8.872;2023-07-02T09:36:17;2250.00;;;999.90;;
3696;SDS011;60662;48.810;8.872;2023-07-02T09:37:18;2250.00;;;999.90;;
3696;SDS011;60662;48.810;8.872;2023-07-02T09:38:21;2250.00;;;999.90;;
3696;SDS011;60662;48.810;8.872;2023-07-02T09:39:28;2250.00;;;999.90;;
3696;SDS011;60662;48.810;8.872;2023-07-02T09:40:31;2250.00;;;999.90;;
3696;SDS011;60662;48.810;8.872;2023-07-02T09:41:32;2250.00;;;999.90;;
3696;SDS011;60662;48.810;8.872;2023-07-02T09:42:34;2250.00;;;999.90;;
3696;SDS011;60662;48.810;8.872;2023-07-02T09:43:37;2250.00;;;999.90;;
3696;SDS011;60662;48.810;8.872;2023-07-02T09:44:39;2250.00;;;999.90;;
3696;SDS011;60662;48.810;8.872;2023-07-02T09:45:43;2250.00;;;999.90;;
3696;SDS011;60662;48.810;8.872;2023-07-02T09:46:46;2250.00;;;999.90;;
3696;SDS011;60662;48.810;8.872;2023-07-02T09:47:54;2250.00;;;999.90;;
3696;SDS011;60662;48.810;8.872;2023-07-02T09:48:59;2250.00;;;999.90;;
3696;SDS011;60662;48.810;8.872;2023-07-02T09:50:02;2250.00;;;999.90;;
3696;SDS011;60662;48.810;8.872;2023-07-02T09:51:07;2250.00;;;999.90;;
3696;SDS011;60662;48.810;8.872;2023-07-02T09:52:09;2250.00;;;999.90;;
3696;SDS011;60662;48.810;8.872;2023-07-02T09:53:11;2250.00;;;999.90;;
3696;SDS011;60662;48.810;8.872;2023-07-02T09:54:13;2250.00;;;999.90;;
3696;SDS011;60662;48.810;8.872;2023-07-02T09:55:14;2250.00;;;999.90;;
3696;SDS011;60662;48.810;8.872;2023-07-02T09:56:16;2250.00;;;999.90;;
3696;SDS011;60662;48.810;8.872;2023-07-02T09:57:18;2250.00;;;999.90;;
3696;SDS011;60662;48.810;8.872;2023-07-02T09:58:19;2250.00;;;999.90;;
3696;SDS011;60662;48.810;8.872;2023-07-02T09:59:21;2250.00;;;999.90;;
3696;SDS011;60662;48.810;8.872;2023-07-02T10:00:22;2250.00;;;999.90;;
3696;SDS011;60662;48.810;8.872;2023-07-02T10:01:24;2250.00;;;999.90;;
3696;SDS011;60662;48.810;8.872;2023-07-02T10:02:26;2250.00;;;999.90;;
3696;SDS011;60662;48.810;8.872;2023-07-02T10:03:31;2250.00;;;999.90;;
3696;SDS011;60662;48.810;8.872;2023-07-02T10:04:39;2250.00;;;999.90;;
3696;SDS011;60662;48.810;8.872;2023-07-02T10:05:45;2250.00;;;999.90;;
3696;SDS011;60662;48.810;8.872;2023-07-02T10:06:50;2250.00;;;999.90;;
3696;SDS011;60662;48.810;8.872;2023-07-02T10:07:55;2250.00;;;999.90;;
3696;SDS011;60662;48.810;8.872;2023-07-02T10:08:57;2250.00;;;999.90;;
3696;SDS011;60662;48.810;8.872;2023-07-02T10:09:59;2250.00;;;999.90;;
3696;SDS011;60662;48.810;8.872;2023-07-02T10:11:10;2250.00;;;999.90;;
3696;SDS011;60662;48.810;8.872;2023-07-02T10:13:28;2250.00;;;999.90;;
3696;SDS011;60662;48.810;8.872;2023-07-02T10:14:42;2250.00;;;999.90;;
3696;SDS011;60662;48.810;8.872;2023-07-02T10:15:44;1566.85;;;847.05;;
3696;SDS011;60662;48.810;8.872;2023-07-02T10:16:50;2250.00;;;999.90;;
3696;SDS011;60662;48.810;8.872;2023-07-02T10:17:55;2250.00;;;999.90;;
3696;SDS011;60662;48.810;8.872;2023-07-02T10:19:08;2250.00;;;999.90;;
3696;SDS011;60662;48.810;8.872;2023-07-02T10:20:11;2250.00;;;999.90;;
3696;SDS011;60662;48.810;8.872;2023-07-02T10:21:14;2250.00;;;999.90;;
3696;SDS011;60662;48.810;8.872;2023-07-02T10:22:17;2250.00;;;999.90;;
3696;SDS011;60662;48.810;8.872;2023-07-02T10:23:18;2250.00;;;999.90;;
3696;SDS011;60662;48.810;8.872;2023-07-02T10:24:19;2250.00;;;999.90;;
3696;SDS011;60662;48.810;8.872;2023-07-02T10:25:28;2250.00;;;999.90;;
3696;SDS011;60662;48.810;8.872;2023-07-02T10:26:30;2250.00;;;999.90;;
3696;SDS011;60662;48.810;8.872;2023-07-02T10:27:39;2250.00;;;999.90;;
3696;SDS011;60662;48.810;8.872;2023-07-02T10:28:41;2250.00;;;999.90;;
3696;SDS011;60662;48.810;8.872;2023-07-02T10:29:49;2250.00;;;999.90;;
3696;SDS011;60662;48.810;8.872;2023-07-02T10:30:51;2250.00;;;999.90;;
3696;SDS011;60662;48.810;8.872;2023-07-02T10:31:55;2250.00;;;999.90;;
3696;SDS011;60662;48.810;8.872;2023-07-02T10:33:11;2250.00;;;999.90;;
3696;SDS011;60662;48.810;8.872;2023-07-02T10:34:12;2250.00;;;999.90;;
3696;SDS011;60662;48.810;8.872;2023-07-02T10:36:20;1165.90;;;999.90;;
3696;SDS011;60662;48.810;8.872;2023-07-02T10:37:22;1274.47;;;999.90;;
3696;SDS011;60662;48.810;8.872;2023-07-02T10:38:24;1084.60;;;966.95;;
3696;SDS011;60662;48.810;8.872;2023-07-02T10:39:30;1158.35;;;997.65;;
3696;SDS011;60662;48.810;8.872;2023-07-02T10:40:32;817.22;;;693.50;;
3696;SDS011;60662;48.810;8.872;2023-07-02T10:41:34;926.28;;;808.13;;
3696;SDS011;60662;48.810;8.872;2023-07-02T10:43:50;724.55;;;647.85;;
3696;SDS011;60662;48.810;8.872;2023-07-02T10:44:52;1048.03;;;918.13;;
3696;SDS011;60662;48.810;8.872;2023-07-02T10:45:54;1322.35;;;999.90;;
3696;SDS011;60662;48.810;8.872;2023-07-02T10:46:57;1175.25;;;992.72;;
3696;SDS011;60662;48.810;8.872;2023-07-02T10:47:58;1436.75;;;999.90;;
3696;SDS011;60662;48.810;8.872;2023-07-02T10:49:00;1247.32;;;999.90;;
3696;SDS011;60662;48.810;8.872;2023-07-02T10:50:02;1340.93;;;990.75;;
3696;SDS011;60662;48.810;8.872;2023-07-02T10:51:15;1423.20;;;999.90;;
3696;SDS011;60662;48.810;8.872;2023-07-02T10:52:17;799.83;;;714.40;;
3696;SDS011;60662;48.810;8.872;2023-07-02T10:53:18;1205.65;;;991.53;;
3696;SDS011;60662;48.810;8.872;2023-07-02T10:54:20;793.63;;;716.65;;
3696;SDS011;60662;48.810;8.872;2023-07-02T10:55:23;1179.00;;;994.63;;
3696;SDS011;60662;48.810;8.872;2023-07-02T10:56:26;927.35;;;838.55;;
3696;SDS011;60662;48.810;8.872;2023-07-02T10:57:28;1000.65;;;906.47;;
3696;SDS011;60662;48.810;8.872;2023-07-02T10:58:41;1072.18;;;954.38;;
3696;SDS011;60662;48.810;8.872;2023-07-02T10:59:43;999.88;;;893.97;;
3696;SDS011;60662;48.810;8.872;2023-07-02T11:01:50;964.92;;;874.40;;
3696;SDS011;60662;48.810;8.872;2023-07-02T11:02:52;1116.00;;;982.25;;
3696;SDS011;60662;48.810;8.872;2023-07-02T11:04:03;1464.90;;;999.90;;
3696;SDS011;60662;48.810;8.872;2023-07-02T11:05:06;859.15;;;778.35;;
3696;SDS011;60662;48.810;8.872;2023-07-02T11:06:13;1001.15;;;902.08;;
3696;SDS011;60662;48.810;8.872;2023-07-02T11:07:14;684.60;;;623.55;;
3696;SDS011;60662;48.810;8.872;2023-07-02T11:08:23;615.45;;;559.58;;
3696;SDS011;60662;48.810;8.872;2023-07-02T11:09:35;1044.47;;;951.33;;
3696;SDS011;60662;48.810;8.872;2023-07-02T11:10:37;1033.03;;;935.70;;
3696;SDS011;60662;48.810;8.872;2023-07-02T11:11:48;819.28;;;744.40;;
3696;SDS011;60662;48.810;8.872;2023-07-02T11:12:51;826.92;;;752.75;;
3696;SDS011;60662;48.810;8.872;2023-07-02T11:13:52;689.83;;;627.88;;
3696;SDS011;60662;48.810;8.872;2023-07-02T11:14:54;727.55;;;662.10;;
3696;SDS011;60662;48.810;8.872;2023-07-02T11:15:56;554.03;;;500.13;;
3696;SDS011;60662;48.810;8.872;2023-07-02T11:16:58;806.55;;;732.30;;
3696;SDS011;60662;48.810;8.872;2023-07-02T11:18:08;889.45;;;800.88;;
3696;SDS011;60662;48.810;8.872;2023-07-02T11:19:11;1149.82;;;999.90;;
3696;SDS011;60662;48.810;8.872;2023-07-02T11:20:13;1191.22;;;999.90;;
3696;SDS011;60662;48.810;8.872;2023-07-02T11:21:16;1001.13;;;885.08;;
3696;SDS011;60662;48.810;8.872;2023-07-02T11:22:17;1162.40;;;999.90;;
3696;SDS011;60662;48.810;8.872;2023-07-02T11:23:19;1150.93;;;999.90;;
3696;SDS011;60662;48.810;8.872;2023-07-02T11:24:34;1139.78;;;999.90;;
3696;SDS011;60662;48.810;8.872;2023-07-02T11:25:37;965.53;;;865.78;;
3696;SDS011;60662;48.810;8.872;2023-07-02T11:26:38;1194.32;;;999.90;;
3696;SDS011;60662;48.810;8.872;2023-07-02T11:27:41;504.65;;;451.50;;
3696;SDS011;60662;48.810;8.872;2023-07-02T11:28:49;904.65;;;811.15;;
3696;SDS011;60662;48.810;8.872;2023-07-02T11:29:58;32.28;;;14.80;;
3696;SDS011;60662;48.810;8.872;2023-07-02T11:31:00;127.15;;;116.20;;
3696;SDS011;60662;48.810;8.872;2023-07-02T11:32:05;100.18;;;88.47;;
3696;SDS011;60662;48.810;8.872;2023-07-02T11:33:07;160.68;;;120.53;;
3696;SDS011;60662;48.810;8.872;2023-07-02T11:34:12;51.10;;;36.60;;
3696;SDS011;60662;48.810;8.872;2023-07-02T11:35:43;29.23;;;14.57;;
3696;SDS011;60662;48.810;8.872;2023-07-02T11:36:44;33.25;;;13.63;;
3696;SDS011;60662;48.810;8.872;2023-07-02T11:37:46;30.05;;;12.40;;
3696;SDS011;60662;48.810;8.872;2023-07-02T11:38:50;33.72;;;16.17;;
3696;SDS011;60662;48.810;8.872;2023-07-02T11:39:52;34.83;;;15.60;;
3696;SDS011;60662;48.810;8.872;2023-07-02T11:40:54;27.73;;;13.68;;
3696;SDS011;60662;48.810;8.872;2023-07-02T11:41:55;26.17;;;14.85;;
3696;SDS011;60662;48.810;8.872;2023-07-02T11:42:57;31.63;;;14.43;;
3696;SDS011;60662;48.810;8.872;2023-07-02T11:43:58;26.33;;;14.73;;
3696;SDS011;60662;48.810;8.872;2023-07-02T11:45:00;24.70;;;13.10;;
3696;SDS011;60662;48.810;8.872;2023-07-02T11:46:02;25.38;;;13.35;;
3696;SDS011;60662;48.810;8.872;2023-07-02T11:47:04;31.33;;;15.15;;
3696;SDS011;60662;48.810;8.872;2023-07-02T11:48:06;23.27;;;13.40;;
3696;SDS011;60662;48.810;8.872;2023-07-02T11:49:08;27.60;;;13.48;;
3696;SDS011;60662;48.810;8.872;2023-07-02T11:50:09;26.85;;;13.95;;
3696;SDS011;60662;48.810;8.872;2023-07-02T11:51:26;28.83;;;14.45;;
3696;SDS011;60662;48.810;8.872;2023-07-02T11:52:27;25.25;;;14.55;;
3696;SDS011;60662;48.810;8.872;2023-07-02T11:53:29;32.40;;;14.23;;
3696;SDS011;60662;48.810;8.872;2023-07-02T11:54:30;30.20;;;14.60;;
3696;SDS011;60662;48.810;8.872;2023-07-02T11:55:32;27.40;;;14.90;;
3696;SDS011;60662;48.810;8.872;2023-07-02T11:56:33;32.92;;;13.95;;
3696;SDS011;60662;48.810;8.872;2023-07-02T11:57:35;39.00;;;16.60;;
3696;SDS011;60662;48.810;8.872;2023-07-02T11:58:36;30.20;;;14.60;;
3696;SDS011;60662;48.810;8.872;2023-07-02T11:59:38;27.27;;;14.73;;
3696;SDS011;60662;48.810;8.872;2023-07-02T12:00:40;35.40;;;16.08;;
3696;SDS011;60662;48.810;8.872;2023-07-02T12:01:41;23.90;;;12.77;;
3696;SDS011;60662;48.810;8.872;2023-07-02T12:02:43;27.95;;;14.15;;
3696;SDS011;60662;48.810;8.872;2023-07-02T12:03:45;27.65;;;13.93;;
3696;SDS011;60662;48.810;8.872;2023-07-02T12:04:47;28.17;;;14.45;;
3696;SDS011;60662;48.810;8.872;2023-07-02T12:05:48;25.90;;;13.63;;
3696;SDS011;60662;48.810;8.872;2023-07-02T12:06:50;26.80;;;13.73;;
3696;SDS011;60662;48.810;8.872;2023-07-02T12:07:52;28.77;;;14.55;;
3696;SDS011;60662;48.810;8.872;2023-07-02T12:08:54;29.75;;;14.70;;
3696;SDS011;60662;48.810;8.872;2023-07-02T12:09:55;24.05;;;14.07;;
3696;SDS011;60662;48.810;8.872;2023-07-02T12:10:57;32.58;;;15.50;;
3696;SDS011;60662;48.810;8.872;2023-07-02T12:11:58;31.05;;;15.88;;
3696;SDS011;60662;48.810;8.872;2023-07-02T12:13:00;29.55;;;15.52;;
3696;SDS011;60662;48.810;8.872;2023-07-02T12:14:01;27.08;;;14.27;;
3696;SDS011;60662;48.810;8.872;2023-07-02T12:15:03;26.80;;;14.68;;
3696;SDS011;60662;48.810;8.872;2023-07-02T12:16:05;26.63;;;13.68;;
3696;SDS011;60662;48.810;8.872;2023-07-02T12:17:06;31.98;;;15.35;;
3696;SDS011;60662;48.810;8.872;2023-07-02T12:18:08;29.13;;;14.48;;
3696;SDS011;60662;48.810;8.872;2023-07-02T12:19:10;33.40;;;14.30;;
3696;SDS011;60662;48.810;8.872;2023-07-02T12:20:12;27.60;;;14.23;;
3696;SDS011;60662;48.810;8.872;2023-07-02T12:21:13;31.25;;;15.85;;
3696;SDS011;60662;48.810;8.872;2023-07-02T12:22:15;25.77;;;14.90;;
3696;SDS011;60662;48.810;8.872;2023-07-02T12:23:18;29.77;;;15.02;;
3696;SDS011;60662;48.810;8.872;2023-07-02T12:24:20;26.38;;;13.85;;
3696;SDS011;60662;48.810;8.872;2023-07-02T12:25:21;30.75;;;15.32;;
3696;SDS011;60662;48.810;8.872;2023-07-02T12:26:23;25.00;;;13.75;;
3696;SDS011;60662;48.810;8.872;2023-07-02T12:27:24;26.55;;;13.65;;
3696;SDS011;60662;48.810;8.872;2023-07-02T12:28:28;25.80;;;14.50;;
3696;SDS011;60662;48.810;8.872;2023-07-02T12:29:29;25.58;;;13.50;;
3696;SDS011;60662;48.810;8.872;2023-07-02T12:30:31;25.48;;;14.93;;
3696;SDS011;60662;48.810;8.872;2023-07-02T12:31:33;26.30;;;13.57;;
3696;SDS011;60662;48.810;8.872;2023-07-02T12:32:37;28.58;;;14.95;;
3696;SDS011;60662;48.810;8.872;2023-07-02T12:33:39;26.95;;;13.55;;
3696;SDS011;60662;48.810;8.872;2023-07-02T12:34:41;29.55;;;14.80;;
3696;SDS011;60662;48.810;8.872;2023-07-02T12:35:42;24.60;;;14.15;;
3696;SDS011;60662;48.810;8.872;2023-07-02T12:36:44;27.63;;;14.55;;
3696;SDS011;60662;48.810;8.872;2023-07-02T12:37:46;27.08;;;15.05;;
3696;SDS011;60662;48.810;8.872;2023-07-02T12:38:49;30.42;;;14.43;;
3696;SDS011;60662;48.810;8.872;2023-07-02T12:39:50;26.95;;;13.88;;
3696;SDS011;60662;48.810;8.872;2023-07-02T12:40:52;28.80;;;15.35;;
3696;SDS011;60662;48.810;8.872;2023-07-02T12:41:53;21.67;;;13.18;;
3696;SDS011;60662;48.810;8.872;2023-07-02T12:42:55;26.50;;;14.05;;
3696;SDS011;60662;48.810;8.872;2023-07-02T12:43:57;29.40;;;15.10;;
3696;SDS011;60662;48.810;8.872;2023-07-02T12:44:59;30.55;;;14.57;;
3696;SDS011;60662;48.810;8.872;2023-07-02T12:46:00;19.83;;;12.70;;
3696;SDS011;60662;48.810;8.872;2023-07-02T12:47:02;25.85;;;13.20;;
3696;SDS011;60662;48.810;8.872;2023-07-02T12:48:03;26.48;;;14.85;;
3696;SDS011;60662;48.810;8.872;2023-07-02T12:49:05;28.30;;;13.88;;
3696;SDS011;60662;48.810;8.872;2023-07-02T12:50:07;30.13;;;13.77;;
3696;SDS011;60662;48.810;8.872;2023-07-02T12:51:09;26.08;;;14.63;;
3696;SDS011;60662;48.810;8.872;2023-07-02T12:52:11;28.08;;;14.90;;
3696;SDS011;60662;48.810;8.872;2023-07-02T12:53:12;26.50;;;13.40;;
3696;SDS011;60662;48.810;8.872;2023-07-02T12:54:13;25.55;;;13.45;;
3696;SDS011;60662;48.810;8.872;2023-07-02T12:55:15;27.50;;;14.60;;
3696;SDS011;60662;48.810;8.872;2023-07-02T12:56:17;25.13;;;13.75;;
3696;SDS011;60662;48.810;8.872;2023-07-02T12:57:18;27.15;;;13.50;;
3696;SDS011;60662;48.810;8.872;2023-07-02T12:58:20;27.00;;;13.38;;
3696;SDS011;60662;48.810;8.872;2023-07-02T12:59:22;29.67;;;13.88;;
3696;SDS011;60662;48.810;8.872;2023-07-02T13:00:23;29.55;;;13.85;;
3696;SDS011;60662;48.810;8.872;2023-07-02T13:01:25;26.88;;;14.07;;
3696;SDS011;60662;48.810;8.872;2023-07-02T13:02:26;31.52;;;15.07;;
3696;SDS011;60662;48.810;8.872;2023-07-02T13:03:29;32.30;;;15.40;;
3696;SDS011;60662;48.810;8.872;2023-07-02T13:04:31;25.70;;;14.00;;
3696;SDS011;60662;48.810;8.872;2023-07-02T13:05:33;25.92;;;14.25;;
3696;SDS011;60662;48.810;8.872;2023-07-02T13:06:35;28.02;;;14.52;;
3696;SDS011;60662;48.810;8.872;2023-07-02T13:07:41;25.20;;;13.98;;
3696;SDS011;60662;48.810;8.872;2023-07-02T13:08:44;25.30;;;13.25;;
3696;SDS011;60662;48.810;8.872;2023-07-02T13:09:46;25.50;;;13.52;;
3696;SDS011;60662;48.810;8.872;2023-07-02T13:10:47;24.35;;;14.70;;
3696;SDS011;60662;48.810;8.872;2023-07-02T13:11:48;26.83;;;15.63;;
3696;SDS011;60662;48.810;8.872;2023-07-02T13:12:50;30.70;;;13.90;;
3696;SDS011;60662;48.810;8.872;2023-07-02T13:13:51;29.63;;;15.88;;
3696;SDS011;60662;48.810;8.872;2023-07-02T13:14:53;25.50;;;13.55;;
3696;SDS011;60662;48.810;8.872;2023-07-02T13:15:54;25.00;;;13.07;;
3696;SDS011;60662;48.810;8.872;2023-07-02T13:16:56;27.63;;;13.30;;
3696;SDS011;60662;48.810;8.872;2023-07-02T13:18:00;24.95;;;15.30;;
3696;SDS011;60662;48.810;8.872;2023-07-02T13:19:02;24.75;;;13.80;;
3696;SDS011;60662;48.810;8.872;2023-07-02T13:20:04;33.50;;;15.88;;
3696;SDS011;60662;48.810;8.872;2023-07-02T13:21:06;27.90;;;13.48;;
3696;SDS011;60662;48.810;8.872;2023-07-02T13:22:08;32.90;;;15.45;;
3696;SDS011;60662;48.810;8.872;2023-07-02T13:23:09;25.00;;;14.05;;
3696;SDS011;60662;48.810;8.872;2023-07-02T13:24:11;25.00;;;13.35;;
3696;SDS011;60662;48.810;8.872;2023-07-02T13:25:13;29.33;;;13.65;;
3696;SDS011;60662;48.810;8.872;2023-07-02T13:26:15;23.35;;;14.35;;
3696;SDS011;60662;48.810;8.872;2023-07-02T13:27:16;32.58;;;14.02;;
3696;SDS011;60662;48.810;8.872;2023-07-02T13:28:19;25.13;;;14.38;;
3696;SDS011;60662;48.810;8.872;2023-07-02T13:29:22;25.40;;;14.00;;
3696;SDS011;60662;48.810;8.872;2023-07-02T13:30:24;22.58;;;12.75;;
3696;SDS011;60662;48.810;8.872;2023-07-02T13:31:25;28.88;;;14.73;;
3696;SDS011;60662;48.810;8.872;2023-07-02T13:32:27;30.65;;;14.63;;
3696;SDS011;60662;48.810;8.872;2023-07-02T13:33:32;27.65;;;14.43;;
3696;SDS011;60662;48.810;8.872;2023-07-02T13:34:34;27.50;;;14.80;;
3696;SDS011;60662;48.810;8.872;2023-07-02T13:35:35;26.38;;;15.00;;
3696;SDS011;60662;48.810;8.872;2023-07-02T13:36:38;28.85;;;14.68;;
3696;SDS011;60662;48.810;8.872;2023-07-02T13:37:40;27.27;;;14.77;;
3696;SDS011;60662;48.810;8.872;2023-07-02T13:38:41;27.73;;;14.52;;
3696;SDS011;60662;48.810;8.872;2023-07-02T13:39:44;24.73;;;14.63;;
3696;SDS011;60662;48.810;8.872;2023-07-02T13:40:46;26.98;;;14.07;;
3696;SDS011;60662;48.810;8.872;2023-07-02T13:41:49;21.70;;;13.90;;
3696;SDS011;60662;48.810;8.872;2023-07-02T13:42:51;29.00;;;16.55;;
3696;SDS011;60662;48.810;8.872;2023-07-02T13:43:53;27.88;;;13.63;;
3696;SDS011;60662;48.810;8.872;2023-07-02T13:44:55;27.88;;;14.77;;
3696;SDS011;60662;48.810;8.872;2023-07-02T13:45:56;25.05;;;14.93;;
3696;SDS011;60662;48.810;8.872;2023-07-02T13:46:58;22.52;;;13.57;;
3696;SDS011;60662;48.810;8.872;2023-07-02T13:47:59;28.80;;;14.25;;
3696;SDS011;60662;48.810;8.872;2023-07-02T13:49:01;25.40;;;14.23;;
3696;SDS011;60662;48.810;8.872;2023-07-02T13:50:02;23.85;;;13.82;;
3696;SDS011;60662;48.810;8.872;2023-07-02T13:51:04;27.02;;;14.32;;
3696;SDS011;60662;48.810;8.872;2023-07-02T13:52:06;24.42;;;13.60;;
3696;SDS011;60662;48.810;8.872;2023-07-02T13:53:08;28.38;;;13.82;;
3696;SDS011;60662;48.810;8.872;2023-07-02T13:54:11;21.83;;;12.60;;
3696;SDS011;60662;48.810;8.872;2023-07-02T13:55:13;25.45;;;14.50;;